KARA/ARA METAR and TAF weather

Enter ICAO airport designator
Station Type Date Time Source
KARA METAR 2021/01/27 13:53 UTC NOAA

KARA 271353Z 33017G22KT 3SM BR OVC003 16/16 A3004 RMK AO2 SLP171 T01610161


Station Type Date Time Source
KARA Decoded METAR 2021/01/27 13:53 UTC NOAA

NEW IBERIA ACADIANA REGIONAL, LA, United States (KARA) 30-02N 091-53W 18M
Jan 27, 2021 - 08:53 AM EST / 2021.01.27 1353 UTC
Wind: from the NNW (330 degrees) at 20 MPH (17 KT) gusting to 25 MPH (22 KT):0
Visibility: 3 mile(s):0
Sky conditions: overcast
Weather: mist
Temperature: 61.0 F (16.1 C)
Dew Point: 61.0 F (16.1 C)
Relative Humidity: 100%
Pressure (altimeter): 30.04 in. Hg (1017 hPa)
ob: KARA 271353Z 33017G22KT 3SM BR OVC003 16/16 A3004 RMK AO2 SLP171 T01610161
cycle: 14

Station Type Date Time Source
KARA TAF 2021/01/27 12:42 UTC NOAA

TAF KARA 271139Z 2712/2812 33010G16KT P6SM VCSH OVC003
TEMPO 2712/2713 1/2SM FG VV002
FM271300 34012G18KT P6SM VCSH OVC007
FM271500 35018G26KT P6SM VCSH SCT010 OVC015
FM271700 36018G26KT P6SM BKN020
FM271900 36017G24KT P6SM SCT030
FM280100 36009KT P6SM SCT200

Example: see airport list